sensor_id;sensor_type;location;lat;lon;timestamp;P1;durP1;ratioP1;P2;durP2;ratioP2
13475;SDS011;6810;63.824;20.288;2022-11-18T00:01:29;3.27;;;1.90;;
13475;SDS011;6810;63.824;20.288;2022-11-18T00:04:16;2.87;;;2.03;;
13475;SDS011;6810;63.824;20.288;2022-11-18T00:07:03;3.07;;;2.00;;
13475;SDS011;6810;63.824;20.288;2022-11-18T00:09:50;3.40;;;2.30;;
13475;SDS011;6810;63.824;20.288;2022-11-18T00:12:37;3.43;;;2.30;;
13475;SDS011;6810;63.824;20.288;2022-11-18T00:15:23;3.17;;;2.17;;
13475;SDS011;6810;63.824;20.288;2022-11-18T00:18:10;3.13;;;2.23;;
13475;SDS011;6810;63.824;20.288;2022-11-18T00:21:03;3.43;;;1.80;;
13475;SDS011;6810;63.824;20.288;2022-11-18T00:23:55;3.07;;;2.00;;
13475;SDS011;6810;63.824;20.288;2022-11-18T00:26:42;3.93;;;2.43;;
13475;SDS011;6810;63.824;20.288;2022-11-18T00:29:29;4.20;;;2.03;;
13475;SDS011;6810;63.824;20.288;2022-11-18T00:32:16;2.73;;;1.77;;
13475;SDS011;6810;63.824;20.288;2022-11-18T00:35:03;2.97;;;1.83;;
13475;SDS011;6810;63.824;20.288;2022-11-18T00:37:50;3.60;;;1.90;;
13475;SDS011;6810;63.824;20.288;2022-11-18T00:40:37;2.17;;;1.60;;
13475;SDS011;6810;63.824;20.288;2022-11-18T00:43:24;2.37;;;1.53;;
13475;SDS011;6810;63.824;20.288;2022-11-18T00:46:12;2.67;;;1.70;;
13475;SDS011;6810;63.824;20.288;2022-11-18T00:48:59;3.37;;;1.80;;
13475;SDS011;6810;63.824;20.288;2022-11-18T00:51:46;3.13;;;1.60;;
13475;SDS011;6810;63.824;20.288;2022-11-18T00:54:33;3.00;;;1.73;;
13475;SDS011;6810;63.824;20.288;2022-11-18T00:57:20;2.37;;;1.43;;
13475;SDS011;6810;63.824;20.288;2022-11-18T01:00:07;2.23;;;1.50;;
13475;SDS011;6810;63.824;20.288;2022-11-18T01:02:55;2.27;;;1.57;;
13475;SDS011;6810;63.824;20.288;2022-11-18T01:05:42;2.40;;;1.40;;
13475;SDS011;6810;63.824;20.288;2022-11-18T01:08:29;1.83;;;1.37;;
13475;SDS011;6810;63.824;20.288;2022-11-18T01:11:16;1.70;;;1.23;;
13475;SDS011;6810;63.824;20.288;2022-11-18T01:14:02;2.40;;;1.50;;
13475;SDS011;6810;63.824;20.288;2022-11-18T01:16:49;2.03;;;1.30;;
13475;SDS011;6810;63.824;20.288;2022-11-18T01:19:39;2.70;;;1.60;;
13475;SDS011;6810;63.824;20.288;2022-11-18T01:22:26;2.70;;;1.50;;
13475;SDS011;6810;63.824;20.288;2022-11-18T01:25:13;1.53;;;1.03;;
13475;SDS011;6810;63.824;20.288;2022-11-18T01:28:00;1.07;;;0.90;;
13475;SDS011;6810;63.824;20.288;2022-11-18T01:30:49;1.67;;;0.90;;
13475;SDS011;6810;63.824;20.288;2022-11-18T01:33:37;2.63;;;1.10;;
13475;SDS011;6810;63.824;20.288;2022-11-18T01:36:25;2.70;;;1.20;;
13475;SDS011;6810;63.824;20.288;2022-11-18T01:39:13;0.90;;;0.80;;
13475;SDS011;6810;63.824;20.288;2022-11-18T01:42:00;2.03;;;0.97;;
13475;SDS011;6810;63.824;20.288;2022-11-18T01:48:16;0.83;;;0.80;;
13475;SDS011;6810;63.824;20.288;2022-11-18T01:51:10;1.83;;;1.00;;
13475;SDS011;6810;63.824;20.288;2022-11-18T01:54:11;1.33;;;1.20;;
13475;SDS011;6810;63.824;20.288;2022-11-18T01:57:04;1.10;;;1.00;;
13475;SDS011;6810;63.824;20.288;2022-11-18T01:59:58;1.47;;;0.83;;
13475;SDS011;6810;63.824;20.288;2022-11-18T02:02:48;1.00;;;0.77;;
13475;SDS011;6810;63.824;20.288;2022-11-18T02:05:35;0.77;;;0.77;;
13475;SDS011;6810;63.824;20.288;2022-11-18T02:08:23;1.13;;;0.70;;
13475;SDS011;6810;63.824;20.288;2022-11-18T02:11:12;1.20;;;0.90;;
13475;SDS011;6810;63.824;20.288;2022-11-18T02:14:01;1.20;;;0.83;;
13475;SDS011;6810;63.824;20.288;2022-11-18T02:29:31;0.83;;;0.83;;
13475;SDS011;6810;63.824;20.288;2022-11-18T02:32:25;1.00;;;0.73;;
13475;SDS011;6810;63.824;20.288;2022-11-18T02:35:21;0.80;;;0.63;;
13475;SDS011;6810;63.824;20.288;2022-11-18T02:38:22;1.00;;;0.80;;
13475;SDS011;6810;63.824;20.288;2022-11-18T02:41:15;1.07;;;0.80;;
13475;SDS011;6810;63.824;20.288;2022-11-18T02:44:12;1.00;;;0.70;;
13475;SDS011;6810;63.824;20.288;2022-11-18T02:47:02;0.70;;;0.70;;
13475;SDS011;6810;63.824;20.288;2022-11-18T02:49:55;0.93;;;0.70;;
13475;SDS011;6810;63.824;20.288;2022-11-18T02:52:46;1.23;;;0.80;;
13475;SDS011;6810;63.824;20.288;2022-11-18T02:55:38;0.77;;;0.77;;
13475;SDS011;6810;63.824;20.288;2022-11-18T02:58:27;0.60;;;0.60;;
13475;SDS011;6810;63.824;20.288;2022-11-18T03:01:19;0.70;;;0.70;;
13475;SDS011;6810;63.824;20.288;2022-11-18T03:04:15;0.60;;;0.60;;
13475;SDS011;6810;63.824;20.288;2022-11-18T03:10:15;0.70;;;0.70;;
13475;SDS011;6810;63.824;20.288;2022-11-18T03:13:09;1.23;;;0.60;;
13475;SDS011;6810;63.824;20.288;2022-11-18T03:16:04;0.53;;;0.50;;
13475;SDS011;6810;63.824;20.288;2022-11-18T03:18:59;0.63;;;0.50;;
13475;SDS011;6810;63.824;20.288;2022-11-18T03:21:58;0.63;;;0.63;;
13475;SDS011;6810;63.824;20.288;2022-11-18T03:25:09;0.40;;;0.40;;
13475;SDS011;6810;63.824;20.288;2022-11-18T03:30:58;0.50;;;0.50;;
13475;SDS011;6810;63.824;20.288;2022-11-18T03:33:51;0.60;;;0.60;;
13475;SDS011;6810;63.824;20.288;2022-11-18T03:36:55;0.70;;;0.57;;
13475;SDS011;6810;63.824;20.288;2022-11-18T03:39:49;0.50;;;0.50;;
13475;SDS011;6810;63.824;20.288;2022-11-18T03:42:40;0.50;;;0.40;;
13475;SDS011;6810;63.824;20.288;2022-11-18T03:45:33;0.50;;;0.40;;
13475;SDS011;6810;63.824;20.288;2022-11-18T03:48:33;0.83;;;0.30;;
13475;SDS011;6810;63.824;20.288;2022-11-18T03:51:34;0.30;;;0.30;;
13475;SDS011;6810;63.824;20.288;2022-11-18T03:54:30;0.40;;;0.30;;
13475;SDS011;6810;63.824;20.288;2022-11-18T03:57:22;0.70;;;0.33;;
13475;SDS011;6810;63.824;20.288;2022-11-18T04:00:13;0.43;;;0.43;;
13475;SDS011;6810;63.824;20.288;2022-11-18T04:03:02;0.47;;;0.47;;
13475;SDS011;6810;63.824;20.288;2022-11-18T04:05:49;0.50;;;0.50;;
13475;SDS011;6810;63.824;20.288;2022-11-18T04:08:42;0.50;;;0.50;;
13475;SDS011;6810;63.824;20.288;2022-11-18T04:11:33;0.70;;;0.70;;
13475;SDS011;6810;63.824;20.288;2022-11-18T04:14:23;0.80;;;0.60;;
13475;SDS011;6810;63.824;20.288;2022-11-18T04:17:11;0.70;;;0.60;;
13475;SDS011;6810;63.824;20.288;2022-11-18T04:20:00;0.50;;;0.50;;
13475;SDS011;6810;63.824;20.288;2022-11-18T04:22:47;0.50;;;0.50;;
13475;SDS011;6810;63.824;20.288;2022-11-18T04:25:34;0.60;;;0.60;;
13475;SDS011;6810;63.824;20.288;2022-11-18T04:28:21;0.53;;;0.53;;
13475;SDS011;6810;63.824;20.288;2022-11-18T04:31:08;2.20;;;0.60;;
13475;SDS011;6810;63.824;20.288;2022-11-18T04:33:55;0.63;;;0.63;;
13475;SDS011;6810;63.824;20.288;2022-11-18T04:36:42;1.00;;;0.53;;
13475;SDS011;6810;63.824;20.288;2022-11-18T04:39:29;0.63;;;0.47;;
13475;SDS011;6810;63.824;20.288;2022-11-18T04:42:16;1.10;;;0.70;;
13475;SDS011;6810;63.824;20.288;2022-11-18T04:45:04;0.50;;;0.50;;
13475;SDS011;6810;63.824;20.288;2022-11-18T04:47:52;0.80;;;0.50;;
13475;SDS011;6810;63.824;20.288;2022-11-18T04:50:39;1.00;;;0.70;;
13475;SDS011;6810;63.824;20.288;2022-11-18T04:53:26;0.60;;;0.60;;
13475;SDS011;6810;63.824;20.288;2022-11-18T04:56:13;0.60;;;0.60;;
13475;SDS011;6810;63.824;20.288;2022-11-18T04:59:00;0.70;;;0.70;;
13475;SDS011;6810;63.824;20.288;2022-11-18T05:01:48;0.70;;;0.57;;
13475;SDS011;6810;63.824;20.288;2022-11-18T05:04:36;1.00;;;0.80;;
13475;SDS011;6810;63.824;20.288;2022-11-18T05:07:23;1.37;;;0.80;;
13475;SDS011;6810;63.824;20.288;2022-11-18T05:10:10;0.80;;;0.70;;
13475;SDS011;6810;63.824;20.288;2022-11-18T05:12:57;0.67;;;0.60;;
13475;SDS011;6810;63.824;20.288;2022-11-18T05:15:44;0.70;;;0.53;;
13475;SDS011;6810;63.824;20.288;2022-11-18T05:18:31;0.93;;;0.50;;
13475;SDS011;6810;63.824;20.288;2022-11-18T05:21:18;1.80;;;0.70;;
13475;SDS011;6810;63.824;20.288;2022-11-18T05:24:05;0.77;;;0.60;;
13475;SDS011;6810;63.824;20.288;2022-11-18T05:26:52;0.90;;;0.43;;
13475;SDS011;6810;63.824;20.288;2022-11-18T05:29:40;1.00;;;0.70;;
13475;SDS011;6810;63.824;20.288;2022-11-18T05:32:27;1.23;;;0.60;;
13475;SDS011;6810;63.824;20.288;2022-11-18T05:35:14;1.17;;;0.80;;
13475;SDS011;6810;63.824;20.288;2022-11-18T05:38:01;0.83;;;0.60;;
13475;SDS011;6810;63.824;20.288;2022-11-18T05:40:48;1.47;;;0.53;;
13475;SDS011;6810;63.824;20.288;2022-11-18T05:43:35;0.70;;;0.70;;
13475;SDS011;6810;63.824;20.288;2022-11-18T05:46:22;0.70;;;0.60;;
13475;SDS011;6810;63.824;20.288;2022-11-18T05:49:09;1.30;;;0.90;;
13475;SDS011;6810;63.824;20.288;2022-11-18T05:51:56;1.23;;;0.60;;
13475;SDS011;6810;63.824;20.288;2022-11-18T05:54:45;0.93;;;0.50;;
13475;SDS011;6810;63.824;20.288;2022-11-18T05:57:35;0.70;;;0.53;;
13475;SDS011;6810;63.824;20.288;2022-11-18T06:00:22;0.60;;;0.60;;
13475;SDS011;6810;63.824;20.288;2022-11-18T06:03:15;1.07;;;0.70;;
13475;SDS011;6810;63.824;20.288;2022-11-18T06:06:07;1.10;;;0.70;;
13475;SDS011;6810;63.824;20.288;2022-11-18T06:08:58;1.30;;;0.77;;
13475;SDS011;6810;63.824;20.288;2022-11-18T06:11:51;1.20;;;0.80;;
13475;SDS011;6810;63.824;20.288;2022-11-18T06:15:23;1.20;;;0.50;;
13475;SDS011;6810;63.824;20.288;2022-11-18T06:17:54;0.97;;;0.60;;
13475;SDS011;6810;63.824;20.288;2022-11-18T06:20:42;0.97;;;0.60;;
13475;SDS011;6810;63.824;20.288;2022-11-18T06:23:35;1.37;;;0.57;;
13475;SDS011;6810;63.824;20.288;2022-11-18T06:26:25;0.93;;;0.70;;
13475;SDS011;6810;63.824;20.288;2022-11-18T06:29:12;0.70;;;0.67;;
13475;SDS011;6810;63.824;20.288;2022-11-18T06:32:03;1.17;;;0.60;;
13475;SDS011;6810;63.824;20.288;2022-11-18T06:34:50;1.30;;;0.70;;
13475;SDS011;6810;63.824;20.288;2022-11-18T06:37:37;0.93;;;0.77;;
13475;SDS011;6810;63.824;20.288;2022-11-18T06:40:24;0.63;;;0.53;;
13475;SDS011;6810;63.824;20.288;2022-11-18T06:42:58;1.03;;;0.57;;
13475;SDS011;6810;63.824;20.288;2022-11-18T06:45:49;0.93;;;0.63;;
13475;SDS011;6810;63.824;20.288;2022-11-18T06:48:35;1.03;;;0.70;;
13475;SDS011;6810;63.824;20.288;2022-11-18T06:51:22;0.90;;;0.70;;
13475;SDS011;6810;63.824;20.288;2022-11-18T06:54:10;1.33;;;0.67;;
13475;SDS011;6810;63.824;20.288;2022-11-18T06:56:56;1.30;;;0.77;;
13475;SDS011;6810;63.824;20.288;2022-11-18T06:59:44;1.43;;;0.80;;
13475;SDS011;6810;63.824;20.288;2022-11-18T07:02:30;0.77;;;0.70;;
13475;SDS011;6810;63.824;20.288;2022-11-18T07:05:17;0.60;;;0.60;;
13475;SDS011;6810;63.824;20.288;2022-11-18T07:08:04;1.00;;;0.77;;
13475;SDS011;6810;63.824;20.288;2022-11-18T07:10:52;0.93;;;0.80;;
13475;SDS011;6810;63.824;20.288;2022-11-18T07:13:39;1.17;;;0.67;;
13475;SDS011;6810;63.824;20.288;2022-11-18T07:16:26;1.10;;;0.70;;
13475;SDS011;6810;63.824;20.288;2022-11-18T07:19:14;1.27;;;0.67;;
13475;SDS011;6810;63.824;20.288;2022-11-18T07:22:01;0.57;;;0.53;;
13475;SDS011;6810;63.824;20.288;2022-11-18T07:24:48;1.23;;;0.80;;
13475;SDS011;6810;63.824;20.288;2022-11-18T07:27:35;0.70;;;0.60;;
13475;SDS011;6810;63.824;20.288;2022-11-18T07:30:23;0.80;;;0.50;;
13475;SDS011;6810;63.824;20.288;2022-11-18T07:33:10;0.77;;;0.50;;
13475;SDS011;6810;63.824;20.288;2022-11-18T07:36:07;0.53;;;0.47;;
13475;SDS011;6810;63.824;20.288;2022-11-18T07:39:01;0.60;;;0.50;;
13475;SDS011;6810;63.824;20.288;2022-11-18T07:41:49;0.50;;;0.50;;
13475;SDS011;6810;63.824;20.288;2022-11-18T07:44:36;1.13;;;0.70;;
13475;SDS011;6810;63.824;20.288;2022-11-18T07:47:03;0.87;;;0.60;;
13475;SDS011;6810;63.824;20.288;2022-11-18T07:49:50;0.83;;;0.47;;
13475;SDS011;6810;63.824;20.288;2022-11-18T07:52:37;0.60;;;0.50;;
13475;SDS011;6810;63.824;20.288;2022-11-18T07:55:24;1.60;;;0.67;;
13475;SDS011;6810;63.824;20.288;2022-11-18T07:58:11;1.13;;;0.70;;
13475;SDS011;6810;63.824;20.288;2022-11-18T08:00:58;0.90;;;0.60;;
13475;SDS011;6810;63.824;20.288;2022-11-18T08:03:53;1.00;;;0.67;;
13475;SDS011;6810;63.824;20.288;2022-11-18T08:06:40;1.30;;;0.50;;
13475;SDS011;6810;63.824;20.288;2022-11-18T08:09:27;0.73;;;0.60;;
13475;SDS011;6810;63.824;20.288;2022-11-18T08:12:14;0.50;;;0.40;;
13475;SDS011;6810;63.824;20.288;2022-11-18T08:15:01;0.90;;;0.53;;
13475;SDS011;6810;63.824;20.288;2022-11-18T08:17:49;0.90;;;0.47;;
13475;SDS011;6810;63.824;20.288;2022-11-18T08:20:39;0.50;;;0.50;;
13475;SDS011;6810;63.824;20.288;2022-11-18T08:23:26;1.03;;;0.53;;
13475;SDS011;6810;63.824;20.288;2022-11-18T08:26:13;0.40;;;0.30;;
13475;SDS011;6810;63.824;20.288;2022-11-18T08:28:41;0.60;;;0.50;;
13475;SDS011;6810;63.824;20.288;2022-11-18T08:31:29;0.67;;;0.40;;
13475;SDS011;6810;63.824;20.288;2022-11-18T08:34:16;1.13;;;0.50;;
13475;SDS011;6810;63.824;20.288;2022-11-18T08:37:03;0.20;;;0.20;;
13475;SDS011;6810;63.824;20.288;2022-11-18T08:39:51;1.13;;;0.40;;
13475;SDS011;6810;63.824;20.288;2022-11-18T08:42:38;1.27;;;0.50;;
13475;SDS011;6810;63.824;20.288;2022-11-18T08:45:25;0.90;;;0.60;;
13475;SDS011;6810;63.824;20.288;2022-11-18T08:48:12;0.60;;;0.40;;
13475;SDS011;6810;63.824;20.288;2022-11-18T08:50:59;1.30;;;0.57;;
13475;SDS011;6810;63.824;20.288;2022-11-18T08:53:46;0.70;;;0.50;;
13475;SDS011;6810;63.824;20.288;2022-11-18T08:56:33;2.17;;;0.50;;
13475;SDS011;6810;63.824;20.288;2022-11-18T08:59:00;0.30;;;0.30;;
13475;SDS011;6810;63.824;20.288;2022-11-18T09:01:47;0.73;;;0.40;;
13475;SDS011;6810;63.824;20.288;2022-11-18T09:04:34;0.70;;;0.60;;
13475;SDS011;6810;63.824;20.288;2022-11-18T09:07:22;0.97;;;0.50;;
13475;SDS011;6810;63.824;20.288;2022-11-18T09:10:08;0.47;;;0.30;;
13475;SDS011;6810;63.824;20.288;2022-11-18T09:12:56;0.57;;;0.40;;
13475;SDS011;6810;63.824;20.288;2022-11-18T09:16:03;1.37;;;0.50;;
13475;SDS011;6810;63.824;20.288;2022-11-18T09:18:54;0.40;;;0.40;;
13475;SDS011;6810;63.824;20.288;2022-11-18T09:22:02;0.30;;;0.20;;
13475;SDS011;6810;63.824;20.288;2022-11-18T09:24:50;1.20;;;0.60;;
13475;SDS011;6810;63.824;20.288;2022-11-18T09:27:37;0.83;;;0.50;;
13475;SDS011;6810;63.824;20.288;2022-11-18T09:30:24;0.50;;;0.50;;
13475;SDS011;6810;63.824;20.288;2022-11-18T09:33:11;0.90;;;0.57;;
13475;SDS011;6810;63.824;20.288;2022-11-18T09:35:58;0.60;;;0.50;;
13475;SDS011;6810;63.824;20.288;2022-11-18T09:38:45;0.43;;;0.40;;
13475;SDS011;6810;63.824;20.288;2022-11-18T09:47:51;0.53;;;0.40;;
13475;SDS011;6810;63.824;20.288;2022-11-18T09:50:42;0.20;;;0.20;;
13475;SDS011;6810;63.824;20.288;2022-11-18T09:53:29;0.50;;;0.37;;
13475;SDS011;6810;63.824;20.288;2022-11-18T09:56:16;0.80;;;0.40;;
13475;SDS011;6810;63.824;20.288;2022-11-18T09:59:04;0.77;;;0.53;;
13475;SDS011;6810;63.824;20.288;2022-11-18T10:01:51;0.30;;;0.30;;
13475;SDS011;6810;63.824;20.288;2022-11-18T10:04:40;0.73;;;0.30;;
13475;SDS011;6810;63.824;20.288;2022-11-18T10:07:40;0.90;;;0.40;;
13475;SDS011;6810;63.824;20.288;2022-11-18T10:10:37;0.47;;;0.40;;
13475;SDS011;6810;63.824;20.288;2022-11-18T10:13:45;1.33;;;0.60;;
13475;SDS011;6810;63.824;20.288;2022-11-18T10:22:38;0.40;;;0.40;;
13475;SDS011;6810;63.824;20.288;2022-11-18T10:25:32;1.17;;;0.40;;
13475;SDS011;6810;63.824;20.288;2022-11-18T10:28:21;1.17;;;0.60;;
13475;SDS011;6810;63.824;20.288;2022-11-18T10:31:12;0.60;;;0.60;;
13475;SDS011;6810;63.824;20.288;2022-11-18T10:33:59;0.73;;;0.73;;
13475;SDS011;6810;63.824;20.288;2022-11-18T10:36:57;1.23;;;1.10;;
13475;SDS011;6810;63.824;20.288;2022-11-18T10:40:25;0.60;;;0.60;;
13475;SDS011;6810;63.824;20.288;2022-11-18T10:43:16;1.27;;;0.90;;
13475;SDS011;6810;63.824;20.288;2022-11-18T10:46:37;0.70;;;0.60;;
13475;SDS011;6810;63.824;20.288;2022-11-18T10:49:24;1.00;;;0.77;;
13475;SDS011;6810;63.824;20.288;2022-11-18T10:52:12;1.33;;;0.80;;
13475;SDS011;6810;63.824;20.288;2022-11-18T10:55:19;1.53;;;0.70;;
13475;SDS011;6810;63.824;20.288;2022-11-18T10:58:09;1.27;;;0.70;;
13475;SDS011;6810;63.824;20.288;2022-11-18T11:07:15;0.80;;;0.80;;
13475;SDS011;6810;63.824;20.288;2022-11-18T11:10:39;1.10;;;1.00;;
13475;SDS011;6810;63.824;20.288;2022-11-18T11:13:26;1.40;;;1.10;;
13475;SDS011;6810;63.824;20.288;2022-11-18T11:16:16;2.10;;;1.00;;
13475;SDS011;6810;63.824;20.288;2022-11-18T11:19:05;1.60;;;1.07;;
13475;SDS011;6810;63.824;20.288;2022-11-18T11:21:57;1.30;;;0.90;;
13475;SDS011;6810;63.824;20.288;2022-11-18T11:24:43;1.83;;;1.20;;
13475;SDS011;6810;63.824;20.288;2022-11-18T11:30:55;2.03;;;1.10;;
13475;SDS011;6810;63.824;20.288;2022-11-18T11:37:08;1.67;;;1.27;;
13475;SDS011;6810;63.824;20.288;2022-11-18T11:49:16;1.93;;;1.40;;
13475;SDS011;6810;63.824;20.288;2022-11-18T11:52:18;1.60;;;1.17;;
13475;SDS011;6810;63.824;20.288;2022-11-18T11:55:17;1.77;;;1.30;;
13475;SDS011;6810;63.824;20.288;2022-11-18T12:04:29;1.70;;;1.30;;
13475;SDS011;6810;63.824;20.288;2022-11-18T12:07:56;1.27;;;0.93;;
13475;SDS011;6810;63.824;20.288;2022-11-18T12:10:47;1.73;;;1.10;;
13475;SDS011;6810;63.824;20.288;2022-11-18T12:13:53;1.20;;;1.10;;
13475;SDS011;6810;63.824;20.288;2022-11-18T12:19:59;2.10;;;1.10;;
13475;SDS011;6810;63.824;20.288;2022-11-18T12:25:57;1.70;;;1.10;;
13475;SDS011;6810;63.824;20.288;2022-11-18T12:28:44;1.80;;;1.23;;
13475;SDS011;6810;63.824;20.288;2022-11-18T12:31:32;1.77;;;1.30;;
13475;SDS011;6810;63.824;20.288;2022-11-18T12:40:37;1.50;;;1.07;;
13475;SDS011;6810;63.824;20.288;2022-11-18T12:55:23;1.93;;;1.17;;
13475;SDS011;6810;63.824;20.288;2022-11-18T12:58:21;1.30;;;0.90;;
13475;SDS011;6810;63.824;20.288;2022-11-18T13:01:10;2.03;;;1.20;;
13475;SDS011;6810;63.824;20.288;2022-11-18T13:04:13;1.70;;;1.10;;
13475;SDS011;6810;63.824;20.288;2022-11-18T13:07:10;1.00;;;0.90;;
13475;SDS011;6810;63.824;20.288;2022-11-18T13:09:58;1.80;;;1.10;;
13475;SDS011;6810;63.824;20.288;2022-11-18T13:12:48;1.80;;;1.30;;
13475;SDS011;6810;63.824;20.288;2022-11-18T13:15:40;2.83;;;1.30;;
13475;SDS011;6810;63.824;20.288;2022-11-18T13:18:26;1.70;;;1.10;;
13475;SDS011;6810;63.824;20.288;2022-11-18T13:21:19;1.70;;;1.20;;
13475;SDS011;6810;63.824;20.288;2022-11-18T13:24:15;1.43;;;1.17;;
13475;SDS011;6810;63.824;20.288;2022-11-18T13:27:04;2.33;;;1.33;;
13475;SDS011;6810;63.824;20.288;2022-11-18T13:29:57;1.30;;;1.07;;
13475;SDS011;6810;63.824;20.288;2022-11-18T13:32:49;1.83;;;1.20;;
13475;SDS011;6810;63.824;20.288;2022-11-18T13:35:20;1.30;;;1.10;;
13475;SDS011;6810;63.824;20.288;2022-11-18T13:38:20;2.00;;;1.10;;
13475;SDS011;6810;63.824;20.288;2022-11-18T13:41:18;1.60;;;1.20;;
13475;SDS011;6810;63.824;20.288;2022-11-18T13:44:23;2.57;;;1.30;;
13475;SDS011;6810;63.824;20.288;2022-11-18T13:47:18;1.70;;;1.20;;
13475;SDS011;6810;63.824;20.288;2022-11-18T13:50:12;2.80;;;1.90;;
13475;SDS011;6810;63.824;20.288;2022-11-18T13:53:06;1.87;;;1.30;;
13475;SDS011;6810;63.824;20.288;2022-11-18T13:56:01;2.57;;;1.13;;
13475;SDS011;6810;63.824;20.288;2022-11-18T13:59:00;2.43;;;1.20;;
13475;SDS011;6810;63.824;20.288;2022-11-18T14:01:58;2.30;;;1.37;;
13475;SDS011;6810;63.824;20.288;2022-11-18T14:04:49;1.90;;;1.00;;
13475;SDS011;6810;63.824;20.288;2022-11-18T14:11:10;1.77;;;1.30;;
13475;SDS011;6810;63.824;20.288;2022-11-18T14:13:58;2.47;;;1.07;;
13475;SDS011;6810;63.824;20.288;2022-11-18T14:16:45;1.77;;;1.10;;
13475;SDS011;6810;63.824;20.288;2022-11-18T14:19:33;2.40;;;1.10;;
13475;SDS011;6810;63.824;20.288;2022-11-18T14:22:22;2.40;;;1.37;;
13475;SDS011;6810;63.824;20.288;2022-11-18T14:25:16;2.73;;;1.20;;
13475;SDS011;6810;63.824;20.288;2022-11-18T14:31:27;2.30;;;1.10;;
13475;SDS011;6810;63.824;20.288;2022-11-18T14:37:11;1.80;;;1.30;;
13475;SDS011;6810;63.824;20.288;2022-11-18T14:39:59;2.07;;;1.30;;
13475;SDS011;6810;63.824;20.288;2022-11-18T14:42:46;1.37;;;0.97;;
13475;SDS011;6810;63.824;20.288;2022-11-18T14:45:33;2.50;;;1.70;;
13475;SDS011;6810;63.824;20.288;2022-11-18T14:48:21;1.80;;;1.30;;
13475;SDS011;6810;63.824;20.288;2022-11-18T14:51:10;1.47;;;1.00;;
13475;SDS011;6810;63.824;20.288;2022-11-18T14:53:59;1.47;;;1.10;;
13475;SDS011;6810;63.824;20.288;2022-11-18T14:56:56;2.03;;;1.43;;
13475;SDS011;6810;63.824;20.288;2022-11-18T14:59:46;1.03;;;0.93;;
13475;SDS011;6810;63.824;20.288;2022-11-18T15:02:33;2.87;;;1.50;;
13475;SDS011;6810;63.824;20.288;2022-11-18T15:05:20;2.63;;;1.30;;
13475;SDS011;6810;63.824;20.288;2022-11-18T15:08:07;3.07;;;1.33;;
13475;SDS011;6810;63.824;20.288;2022-11-18T15:10:54;2.20;;;1.07;;
13475;SDS011;6810;63.824;20.288;2022-11-18T15:13:41;1.17;;;0.90;;
13475;SDS011;6810;63.824;20.288;2022-11-18T15:16:29;1.73;;;1.10;;
13475;SDS011;6810;63.824;20.288;2022-11-18T23:01:16;0.70;;;0.70;;
13475;SDS011;6810;63.824;20.288;2022-11-18T23:03:45;1.37;;;0.93;;
13475;SDS011;6810;63.824;20.288;2022-11-18T23:06:32;1.23;;;1.10;;
13475;SDS011;6810;63.824;20.288;2022-11-18T23:09:20;1.30;;;0.87;;
13475;SDS011;6810;63.824;20.288;2022-11-18T23:12:07;1.87;;;1.00;;
13475;SDS011;6810;63.824;20.288;2022-11-18T23:14:52;1.10;;;0.97;;
13475;SDS011;6810;63.824;20.288;2022-11-18T23:17:39;1.33;;;0.83;;
13475;SDS011;6810;63.824;20.288;2022-11-18T23:20:26;1.40;;;1.10;;
13475;SDS011;6810;63.824;20.288;2022-11-18T23:23:13;1.03;;;0.93;;
13475;SDS011;6810;63.824;20.288;2022-11-18T23:26:04;1.70;;;1.13;;
13475;SDS011;6810;63.824;20.288;2022-11-18T23:28:52;1.40;;;1.20;;
13475;SDS011;6810;63.824;20.288;2022-11-18T23:31:40;1.33;;;1.00;;
13475;SDS011;6810;63.824;20.288;2022-11-18T23:34:28;1.63;;;1.00;;
13475;SDS011;6810;63.824;20.288;2022-11-18T23:37:15;2.03;;;0.97;;
13475;SDS011;6810;63.824;20.288;2022-11-18T23:40:02;1.83;;;1.07;;
13475;SDS011;6810;63.824;20.288;2022-11-18T23:42:49;1.13;;;0.90;;
13475;SDS011;6810;63.824;20.288;2022-11-18T23:45:36;1.30;;;1.10;;
13475;SDS011;6810;63.824;20.288;2022-11-18T23:48:24;1.10;;;1.00;;
13475;SDS011;6810;63.824;20.288;2022-11-18T23:51:15;1.70;;;1.10;;
13475;SDS011;6810;63.824;20.288;2022-11-18T23:54:03;1.33;;;0.80;;
13475;SDS011;6810;63.824;20.288;2022-11-18T23:56:50;1.70;;;1.23;;
13475;SDS011;6810;63.824;20.288;2022-11-18T23:59:37;1.30;;;1.10;;
